createdAt,value
2019-01-16T00:04:56.323Z,7.8
2019-01-16T00:09:56.439Z,7.8
2019-01-16T00:14:56.445Z,7.8
2019-01-16T00:19:56.315Z,7.8
2019-01-16T00:25:30.054Z,7.8
2019-01-16T00:29:56.409Z,7.8
2019-01-16T00:34:56.525Z,7.8
2019-01-16T00:39:56.408Z,7.9
2019-01-16T00:44:56.411Z,7.9
2019-01-16T00:49:56.363Z,7.9
2019-01-16T00:54:56.515Z,7.9
2019-01-16T00:59:56.498Z,7.9
2019-01-16T01:04:56.384Z,7.9
2019-01-16T01:09:56.260Z,7.9
2019-01-16T01:14:56.226Z,8
2019-01-16T01:19:56.421Z,8
2019-01-16T01:24:56.533Z,8
2019-01-16T01:29:56.353Z,8
2019-01-16T01:34:56.518Z,8.1
2019-01-16T01:39:56.395Z,8
2019-01-16T01:44:56.385Z,8
2019-01-16T01:49:56.187Z,8
2019-01-16T01:54:56.154Z,7.9
2019-01-16T01:59:56.427Z,8
2019-01-16T02:04:56.368Z,7.9
2019-01-16T02:09:56.225Z,8
2019-01-16T02:14:56.173Z,7.9
2019-01-16T02:19:56.476Z,8
2019-01-16T02:24:56.187Z,8
2019-01-16T02:29:56.330Z,8
2019-01-16T02:34:56.284Z,8
2019-01-16T02:39:56.454Z,8
2019-01-16T02:44:56.210Z,7.9
2019-01-16T02:49:56.403Z,8
2019-01-16T02:54:56.411Z,8.1
2019-01-16T02:59:56.333Z,8
2019-01-16T03:04:56.115Z,8
2019-01-16T03:09:56.405Z,8.1
2019-01-16T03:14:56.042Z,8
2019-01-16T03:19:56.337Z,7.9
2019-01-16T03:24:56.137Z,7.9
2019-01-16T03:29:55.985Z,8
2019-01-16T03:34:56.074Z,7.9
2019-01-16T03:39:56.294Z,7.9
2019-01-16T03:44:56.294Z,7.9
2019-01-16T03:49:56.088Z,7.9
2019-01-16T03:54:56.119Z,7.9
2019-01-16T03:59:56.159Z,7.9
2019-01-16T04:04:56.162Z,7.8
2019-01-16T04:09:56.023Z,7.8
2019-01-16T04:14:56.137Z,7.8
2019-01-16T04:19:56.041Z,7.7
2019-01-16T04:24:56.125Z,7.8
2019-01-16T04:29:55.997Z,7.8
2019-01-16T04:34:55.961Z,7.8
2019-01-16T04:39:56.158Z,7.7
2019-01-16T04:44:56.271Z,7.7
2019-01-16T04:49:56.136Z,7.7
2019-01-16T04:54:56.230Z,7.7
2019-01-16T04:59:56.252Z,7.6
2019-01-16T05:04:56.252Z,7.5
2019-01-16T05:09:56.173Z,7.5
2019-01-16T05:14:55.964Z,7.4
2019-01-16T05:19:55.923Z,7.4
2019-01-16T05:24:55.850Z,7.3
2019-01-16T05:29:56.110Z,7.4
2019-01-16T05:34:56.019Z,7.4
2019-01-16T05:39:55.866Z,7.4
2019-01-16T05:44:55.913Z,7.4
2019-01-16T05:49:55.840Z,7.3
2019-01-16T05:54:55.804Z,7.3
2019-01-16T05:59:55.964Z,7.3
2019-01-16T06:04:56.002Z,7.3
2019-01-16T06:09:55.960Z,7.3
2019-01-16T06:14:55.906Z,7.2
2019-01-16T06:19:55.772Z,7.1
2019-01-16T06:24:56.081Z,7.2
2019-01-16T06:29:56.005Z,7.2
2019-01-16T06:34:56.002Z,7.1
2019-01-16T06:39:55.884Z,7.2
2019-01-16T06:44:55.883Z,7.2
2019-01-16T06:50:01.627Z,7.2
2019-01-16T06:54:56.038Z,7.2
2019-01-16T06:59:55.938Z,7.2
2019-01-16T07:04:55.827Z,7.2
2019-01-16T07:09:55.713Z,7.1
2019-01-16T07:14:55.685Z,7.1
2019-01-16T07:19:55.738Z,7
2019-01-16T07:24:55.974Z,7.1
2019-01-16T07:29:55.811Z,7
2019-01-16T07:34:55.863Z,6.9
2019-01-16T07:39:55.658Z,7
2019-01-16T07:44:55.989Z,7
2019-01-16T07:49:56.359Z,6.8
2019-01-16T07:54:55.854Z,6.7
2019-01-16T07:59:55.787Z,6.8
2019-01-16T08:04:55.860Z,6.9
2019-01-16T08:09:55.864Z,6.9
2019-01-16T08:14:55.813Z,6.9
2019-01-16T08:19:55.628Z,6.9
2019-01-16T08:24:55.701Z,6.8
2019-01-16T08:29:55.715Z,6.8
2019-01-16T08:34:55.755Z,6.7
2019-01-16T08:39:55.663Z,6.8
2019-01-16T08:44:55.704Z,6.8
2019-01-16T08:49:55.947Z,6.8
2019-01-16T08:54:55.890Z,6.7
2019-01-16T08:59:55.701Z,6.8
2019-01-16T09:04:55.678Z,6.6
2019-01-16T09:09:55.742Z,6.6
2019-01-16T09:14:55.521Z,6.7
2019-01-16T09:19:55.686Z,6.7
2019-01-16T09:24:55.581Z,6.8
2019-01-16T09:29:55.778Z,6.6
2019-01-16T09:34:55.729Z,6.7
2019-01-16T09:39:55.493Z,6.8
2019-01-16T09:44:55.625Z,6.7
2019-01-16T09:49:55.478Z,6.8
2019-01-16T09:54:55.444Z,6.8
2019-01-16T09:59:55.695Z,6.8
2019-01-16T10:04:56.888Z,6.8
2019-01-16T10:09:55.631Z,6.8
2019-01-16T10:14:55.646Z,7
2019-01-16T10:19:55.435Z,7.1
2019-01-16T10:24:55.428Z,7.1
2019-01-16T10:29:55.669Z,7.2
2019-01-16T10:34:55.418Z,7.3
2019-01-16T10:39:55.624Z,7.3
2019-01-16T10:44:55.700Z,7
2019-01-16T10:49:55.555Z,7.2
2019-01-16T10:54:55.521Z,7.2
2019-01-16T10:59:55.465Z,7.2
2019-01-16T11:04:55.561Z,7.1
2019-01-16T11:09:55.535Z,7.1
2019-01-16T11:14:55.610Z,7.1
2019-01-16T11:19:55.363Z,7.1
2019-01-16T11:24:55.615Z,7
2019-01-16T11:29:55.586Z,7
2019-01-16T11:34:55.541Z,7
2019-01-16T11:39:55.415Z,7.1
2019-01-16T11:44:55.656Z,7.1
2019-01-16T11:49:55.515Z,7.2
2019-01-16T11:54:55.391Z,7.2
2019-01-16T11:59:55.300Z,7.1
2019-01-16T12:04:55.312Z,7.1
2019-01-16T12:09:55.490Z,7.1
2019-01-16T12:14:55.417Z,7.1
2019-01-16T12:19:55.251Z,7
2019-01-16T12:24:55.535Z,7
2019-01-16T12:29:55.373Z,7.1
2019-01-16T12:34:55.262Z,7.1
2019-01-16T12:39:55.536Z,7.1
2019-01-16T12:44:55.484Z,7.1
2019-01-16T12:49:55.330Z,7.1
2019-01-16T12:54:55.517Z,7.2
2019-01-16T12:59:55.352Z,7.2
2019-01-16T13:04:55.226Z,7.2
2019-01-16T13:09:55.451Z,7.2
2019-01-16T13:14:55.322Z,7.1
2019-01-16T13:19:55.287Z,7.1
2019-01-16T13:24:55.206Z,7.1
2019-01-16T13:29:55.464Z,7.1
2019-01-16T13:34:55.431Z,7.1
2019-01-16T13:39:55.397Z,7
2019-01-16T13:44:55.202Z,7
2019-01-16T13:49:55.418Z,7.1
2019-01-16T13:54:55.457Z,6.9
2019-01-16T13:59:55.242Z,6.9
2019-01-16T14:04:55.245Z,6.9
2019-01-16T14:09:55.186Z,6.8
2019-01-16T14:14:55.241Z,6.8
2019-01-16T14:19:55.123Z,6.8
2019-01-16T14:24:55.124Z,6.7
2019-01-16T14:29:55.305Z,6.7
2019-01-16T14:34:55.392Z,6.7
2019-01-16T14:39:55.204Z,6.6
2019-01-16T14:44:55.169Z,6.6
2019-01-16T14:49:55.079Z,6.6
2019-01-16T14:54:55.319Z,6.6
2019-01-16T14:59:55.226Z,6.6
2019-01-16T15:04:55.133Z,6.6
2019-01-16T15:09:55.025Z,6.7
2019-01-16T15:14:55.312Z,6.6
2019-01-16T15:19:55.176Z,6.5
2019-01-16T15:24:55.143Z,6.6
2019-01-16T15:29:55.052Z,6.6
2019-01-16T15:34:55.057Z,6.6
2019-01-16T15:39:55.280Z,6.5
2019-01-16T15:44:55.178Z,6.6
2019-01-16T15:49:54.987Z,6.6
2019-01-16T15:54:55.253Z,6.6
2019-01-16T15:59:55.150Z,6.5
2019-01-16T16:04:55.165Z,6.6
2019-01-16T16:09:54.909Z,6.6
2019-01-16T16:14:54.888Z,6.6
2019-01-16T16:19:55.197Z,6.6
2019-01-16T16:24:55.062Z,6.6
2019-01-16T16:29:55.007Z,6.7
2019-01-16T16:34:54.993Z,6.6
2019-01-16T16:39:54.869Z,6.5
2019-01-16T16:44:54.885Z,6.6
2019-01-16T16:49:54.967Z,6.5
2019-01-16T16:54:54.828Z,6.4
2019-01-16T16:59:55.049Z,6.5
2019-01-16T17:04:55.052Z,6.4
2019-01-16T17:09:54.947Z,6.4
2019-01-16T17:14:54.868Z,6.3
2019-01-16T17:19:55.174Z,6.3
2019-01-16T17:24:55.046Z,6.2
2019-01-16T17:29:55.092Z,6.1
2019-01-16T17:34:54.974Z,6.1
2019-01-16T17:39:54.799Z,6
2019-01-16T17:44:54.839Z,6.1
2019-01-16T17:49:55.079Z,6
2019-01-16T17:54:54.894Z,5.9
2019-01-16T17:59:54.748Z,5.9
2019-01-16T18:04:55.099Z,5.9
2019-01-16T18:09:55.094Z,5.9
2019-01-16T18:14:55.069Z,5.9
2019-01-16T18:19:54.915Z,5.8
2019-01-16T18:24:54.801Z,5.8
2019-01-16T18:29:55.043Z,5.8
2019-01-16T18:34:54.967Z,5.7
2019-01-16T18:39:55.032Z,5.7
2019-01-16T18:44:54.934Z,5.8
2019-01-16T18:49:54.802Z,5.8
2019-01-16T18:54:54.762Z,5.8
2019-01-16T18:59:54.696Z,5.8
2019-01-16T19:04:54.681Z,5.7
2019-01-16T19:09:54.997Z,5.8
2019-01-16T19:14:54.645Z,5.8
2019-01-16T19:19:54.877Z,5.8
2019-01-16T19:24:54.819Z,5.9
2019-01-16T19:29:54.719Z,6
2019-01-16T19:34:54.779Z,5.9
2019-01-16T19:39:54.596Z,5.9
2019-01-16T19:44:54.605Z,5.9
2019-01-16T19:49:54.856Z,5.9
2019-01-16T19:54:54.907Z,5.8
2019-01-16T19:59:54.724Z,5.7
2019-01-16T20:04:54.628Z,5.8
2019-01-16T20:09:54.854Z,5.8
2019-01-16T20:14:54.589Z,5.8
2019-01-16T20:19:54.860Z,5.8
2019-01-16T20:24:54.750Z,5.9
2019-01-16T20:29:54.514Z,5.8
2019-01-16T20:34:54.482Z,5.8
2019-01-16T20:39:54.763Z,5.7
2019-01-16T20:44:54.766Z,5.8
2019-01-16T20:49:54.691Z,5.9
2019-01-16T20:54:54.754Z,6
2019-01-16T20:59:54.748Z,6.1
2019-01-16T21:04:54.811Z,6.1
2019-01-16T21:09:54.730Z,6.2
2019-01-16T21:14:54.685Z,6.2
2019-01-16T21:19:54.622Z,6.2
2019-01-16T21:24:54.754Z,6.1
2019-01-16T21:29:54.737Z,6
2019-01-16T21:34:54.474Z,6.1
2019-01-16T21:39:54.756Z,6.1
2019-01-16T21:44:54.409Z,6.2
2019-01-16T21:49:54.735Z,6.2
2019-01-16T21:54:54.403Z,6.3
2019-01-16T21:59:54.760Z,6.3
2019-01-16T22:04:54.362Z,6.2
2019-01-16T22:09:54.543Z,6.2
2019-01-16T22:14:54.720Z,6.2
2019-01-16T22:19:54.592Z,6.1
2019-01-16T22:24:54.389Z,6.1
2019-01-16T22:29:54.687Z,6.2
2019-01-16T22:34:54.512Z,6.2
2019-01-16T22:39:54.450Z,6.1
2019-01-16T22:44:54.577Z,6.1
2019-01-16T22:49:54.634Z,6.2
2019-01-16T22:54:54.635Z,6.1
2019-01-16T22:59:54.315Z,6.1
2019-01-16T23:04:54.408Z,6.2
2019-01-16T23:09:54.406Z,6.1
2019-01-16T23:14:54.560Z,6.1
2019-01-16T23:19:54.381Z,6
2019-01-16T23:24:54.330Z,6.1
2019-01-16T23:29:54.606Z,6
2019-01-16T23:34:54.557Z,5.8
2019-01-16T23:39:54.390Z,5.8
2019-01-16T23:44:54.561Z,5.9
2019-01-16T23:49:54.520Z,5.8
2019-01-16T23:54:54.579Z,5.7
2019-01-16T23:59:54.550Z,5.7
